createdAt,value
2023-01-12T00:02:19.529Z,5.40
2023-01-12T00:04:46.151Z,5.40
2023-01-12T00:07:13.609Z,5.30
2023-01-12T00:09:40.418Z,5.40
2023-01-12T00:12:08.537Z,5.50
2023-01-12T00:14:35.724Z,5.50
2023-01-12T00:17:02.687Z,5.50
2023-01-12T00:19:29.348Z,5.60
2023-01-12T00:22:00.372Z,5.60
2023-01-12T00:24:31.296Z,5.70
2023-01-12T00:26:58.866Z,5.70
2023-01-12T00:29:25.651Z,5.60
2023-01-12T00:31:52.936Z,5.60
2023-01-12T00:34:19.712Z,5.50
2023-01-12T00:36:46.820Z,5.50
2023-01-12T00:39:13.880Z,5.40
2023-01-12T00:41:59.720Z,5.40
2023-01-12T00:44:44.799Z,5.40
2023-01-12T00:47:11.845Z,5.40
2023-01-12T00:49:39.006Z,5.30
2023-01-12T00:52:06.126Z,5.30
2023-01-12T00:54:33.645Z,5.30
2023-01-12T00:57:00.627Z,5.30
2023-01-12T00:59:27.670Z,5.30
2023-01-12T01:01:54.359Z,5.30
2023-01-12T01:04:21.262Z,5.20
2023-01-12T01:06:47.819Z,5.30
2023-01-12T01:09:14.624Z,5.30
2023-01-12T01:11:41.144Z,5.40
2023-01-12T01:14:08.075Z,5.50
2023-01-12T01:16:35.050Z,5.50
2023-01-12T01:19:03.132Z,5.60
2023-01-12T01:21:29.641Z,5.60
2023-01-12T01:23:56.273Z,5.70
2023-01-12T01:26:23.400Z,5.70
2023-01-12T01:28:50.587Z,5.80
2023-01-12T01:31:21.558Z,5.80
2023-01-12T01:33:48.987Z,5.90
2023-01-12T01:36:16.113Z,5.90
2023-01-12T01:38:44.577Z,6.00
2023-01-12T01:41:16.714Z,6.00
2023-01-12T01:43:47.944Z,6.10
2023-01-12T01:46:15.445Z,6.10
2023-01-12T01:48:43.315Z,6.10
2023-01-12T01:51:12.096Z,6.20
2023-01-12T01:53:40.739Z,6.20
2023-01-12T01:56:11.282Z,6.30
2023-01-12T01:58:43.084Z,6.30
2023-01-12T02:01:10.535Z,6.40
2023-01-12T02:03:37.838Z,6.30
2023-01-12T02:06:05.711Z,6.30
2023-01-12T02:08:39.679Z,6.40
2023-01-12T02:11:26.812Z,6.40
2023-01-12T02:14:12.088Z,6.40
2023-01-12T02:16:41.898Z,6.30
2023-01-12T02:19:19.914Z,6.20
2023-01-12T02:22:12.185Z,6.20
2023-01-12T02:24:57.477Z,6.20
2023-01-12T02:27:42.371Z,6.20
2023-01-12T02:30:21.844Z,6.10
2023-01-12T02:32:48.525Z,6.10
2023-01-12T02:35:32.475Z,6.10
2023-01-12T02:38:06.262Z,6.10
2023-01-12T02:40:36.452Z,6.20
2023-01-12T02:43:13.255Z,6.10
2023-01-12T02:45:39.852Z,6.10
2023-01-12T02:48:22.206Z,6.10
2023-01-12T02:50:59.188Z,6.10
2023-01-12T02:53:44.678Z,6.10
2023-01-12T02:56:13.533Z,6.10
2023-01-12T02:58:45.594Z,6.10
2023-01-12T03:01:14.058Z,6.00
2023-01-12T03:03:41.554Z,6.10
2023-01-12T03:06:08.505Z,6.10
2023-01-12T03:08:37.081Z,6.20
2023-01-12T03:11:06.849Z,6.20
2023-01-12T03:13:35.967Z,6.20
2023-01-12T03:16:04.558Z,6.20
2023-01-12T03:18:34.313Z,6.30
2023-01-12T03:21:04.023Z,6.30
2023-01-12T03:23:43.145Z,6.40
2023-01-12T03:26:11.107Z,6.40
2023-01-12T03:28:38.766Z,6.40
2023-01-12T03:31:11.003Z,6.40
2023-01-12T03:33:38.892Z,6.50
2023-01-12T03:36:16.710Z,6.60
2023-01-12T03:38:51.665Z,6.50
2023-01-12T03:41:24.326Z,6.60
2023-01-12T03:43:52.289Z,6.60
2023-01-12T03:46:27.535Z,6.70
2023-01-12T03:49:06.263Z,6.80
2023-01-12T03:51:35.018Z,6.70
2023-01-12T03:54:02.607Z,6.80
2023-01-12T03:56:31.653Z,6.80
2023-01-12T03:58:58.272Z,6.80
2023-01-12T04:01:25.039Z,6.90
2023-01-12T04:03:51.606Z,6.90
2023-01-12T04:06:18.119Z,7.00
2023-01-12T04:08:44.638Z,6.90
2023-01-12T04:11:30.058Z,6.90
2023-01-12T04:13:56.556Z,6.90
2023-01-12T04:16:23.182Z,6.90
2023-01-12T04:18:49.698Z,6.90
2023-01-12T04:21:34.944Z,6.90
2023-01-12T04:24:01.558Z,6.90
2023-01-12T04:26:28.047Z,6.90
2023-01-12T04:28:54.675Z,7.00
2023-01-12T04:31:21.326Z,7.00
2023-01-12T04:33:47.840Z,7.00
2023-01-12T04:36:14.447Z,6.90
2023-01-12T04:38:41.158Z,6.90
2023-01-12T04:41:08.015Z,6.90
2023-01-12T04:43:34.897Z,6.90
2023-01-12T04:46:08.994Z,6.90
2023-01-12T04:48:36.163Z,6.90
2023-01-12T04:51:02.760Z,7.00
2023-01-12T04:53:29.596Z,7.00
2023-01-12T04:55:56.410Z,7.00
2023-01-12T04:58:23.041Z,6.90
2023-01-12T05:00:49.538Z,7.00
2023-01-12T05:03:16.629Z,7.00
2023-01-12T05:05:43.199Z,7.10
2023-01-12T05:08:28.323Z,7.10
2023-01-12T05:10:56.399Z,7.00
2023-01-12T05:13:23.624Z,7.00
2023-01-12T05:15:50.212Z,7.00
2023-01-12T05:18:16.763Z,7.00
2023-01-12T05:20:43.310Z,7.10
2023-01-12T05:23:09.838Z,7.10
2023-01-12T05:25:36.476Z,7.10
2023-01-12T05:28:03.167Z,7.20
2023-01-12T05:30:31.810Z,7.20
2023-01-12T05:32:58.710Z,7.20
2023-01-12T05:35:25.209Z,7.30
2023-01-12T05:37:51.733Z,7.30
2023-01-12T05:40:18.322Z,7.30
2023-01-12T05:43:03.491Z,7.30
2023-01-12T05:45:30.142Z,7.30
2023-01-12T05:48:00.382Z,7.30
2023-01-12T05:50:26.894Z,7.20
2023-01-12T05:52:53.539Z,7.10
2023-01-12T05:55:20.070Z,7.00
2023-01-12T05:57:46.587Z,7.00
2023-01-12T06:00:13.462Z,7.00
2023-01-12T06:02:40.019Z,7.00
2023-01-12T06:05:09.396Z,7.00
2023-01-12T06:07:35.995Z,6.90
2023-01-12T06:10:02.607Z,6.90
2023-01-12T06:12:47.802Z,6.90
2023-01-12T06:15:14.646Z,6.90
2023-01-12T06:17:41.151Z,7.00
2023-01-12T06:20:08.036Z,7.00
2023-01-12T06:22:34.597Z,7.00
2023-01-12T06:25:01.100Z,7.10
2023-01-12T06:27:30.817Z,7.10
2023-01-12T06:29:57.330Z,7.20
2023-01-12T06:32:23.855Z,7.20
2023-01-12T06:34:50.372Z,7.30
2023-01-12T06:37:16.893Z,7.30
2023-01-12T06:39:43.381Z,7.30
2023-01-12T06:42:28.473Z,7.30
2023-01-12T06:44:55.854Z,7.20
2023-01-12T06:47:22.569Z,7.30
2023-01-12T06:49:51.553Z,7.30
2023-01-12T06:52:21.933Z,7.30
2023-01-12T06:54:48.459Z,7.30
2023-01-12T06:57:15.099Z,7.30
2023-01-12T06:59:44.378Z,7.30
2023-01-12T07:02:12.300Z,7.30
2023-01-12T07:04:39.498Z,7.30
2023-01-12T07:07:06.681Z,7.30
2023-01-12T07:09:33.589Z,7.40
2023-01-12T07:12:00.227Z,7.30
2023-01-12T07:14:26.739Z,7.30
2023-01-12T07:16:53.266Z,7.30
2023-01-12T07:19:19.785Z,7.30
2023-01-12T07:21:47.545Z,7.30
2023-01-12T07:24:14.175Z,7.40
2023-01-12T07:26:40.689Z,7.40
2023-01-12T07:29:07.261Z,7.40
2023-01-12T07:31:33.840Z,7.30
2023-01-12T07:34:00.411Z,7.40
2023-01-12T07:36:26.974Z,7.50
2023-01-12T07:38:53.508Z,7.40
2023-01-12T07:41:38.635Z,7.50
2023-01-12T07:44:05.189Z,7.60
2023-01-12T07:46:31.696Z,7.60
2023-01-12T07:48:58.277Z,7.60
2023-01-12T07:51:24.781Z,7.60
2023-01-12T07:53:51.270Z,7.70
2023-01-12T07:56:19.178Z,7.60
2023-01-12T07:58:48.952Z,7.70
2023-01-12T08:01:15.757Z,7.70
2023-01-12T08:03:42.491Z,7.60
2023-01-12T08:06:09.096Z,7.60
2023-01-12T08:08:35.941Z,7.70
2023-01-12T08:11:06.308Z,7.70
2023-01-12T08:13:33.123Z,7.70
2023-01-12T08:16:04.341Z,7.70
2023-01-12T08:18:33.442Z,7.70
2023-01-12T08:21:00.780Z,7.70
2023-01-12T08:23:32.346Z,7.70
2023-01-12T08:26:00.996Z,7.60
2023-01-12T08:28:30.559Z,7.70
2023-01-12T08:30:57.219Z,7.70
2023-01-12T08:33:23.801Z,7.70
2023-01-12T08:35:50.345Z,7.80
2023-01-12T08:38:16.923Z,7.80
2023-01-12T08:41:02.404Z,7.80
2023-01-12T08:43:47.493Z,7.80
2023-01-12T08:46:14.417Z,7.80
2023-01-12T08:48:41.027Z,7.80
2023-01-12T08:51:08.146Z,7.80
2023-01-12T08:53:34.900Z,7.90
2023-01-12T08:56:01.592Z,7.90
2023-01-12T08:58:28.581Z,7.90
2023-01-12T09:00:55.255Z,7.90
2023-01-12T09:03:22.332Z,7.90
2023-01-12T09:05:48.940Z,7.90
2023-01-12T09:08:15.451Z,8.00
2023-01-12T09:10:42.133Z,8.00
2023-01-12T09:13:09.991Z,8.00
2023-01-12T09:15:36.537Z,8.00
2023-01-12T09:18:03.078Z,8.00
2023-01-12T09:20:29.658Z,8.10
2023-01-12T09:22:56.175Z,8.10
2023-01-12T09:25:22.798Z,8.20
2023-01-12T09:27:49.409Z,8.20
2023-01-12T09:30:16.056Z,8.20
2023-01-12T09:32:42.579Z,8.20
2023-01-12T09:35:09.187Z,8.10
2023-01-12T09:37:35.709Z,8.10
2023-01-12T09:40:04.291Z,8.10
2023-01-12T09:42:49.666Z,8.20
2023-01-12T09:45:39.811Z,8.30
2023-01-12T09:48:08.294Z,8.30
2023-01-12T09:50:36.818Z,8.40
2023-01-12T09:53:07.121Z,8.40
2023-01-12T09:55:39.005Z,8.50
2023-01-12T09:58:10.252Z,8.50
2023-01-12T10:00:36.765Z,8.50
2023-01-12T10:03:16.218Z,8.50
2023-01-12T10:05:48.720Z,8.50
2023-01-12T10:08:17.623Z,8.50
2023-01-12T10:10:48.819Z,8.60
2023-01-12T10:13:15.357Z,8.60
2023-01-12T10:15:48.646Z,8.60
2023-01-12T10:18:20.265Z,8.70
2023-01-12T10:20:46.757Z,8.70
2023-01-12T10:23:16.419Z,8.70
2023-01-12T10:25:42.975Z,8.70
2023-01-12T10:28:17.887Z,8.70
2023-01-12T10:30:44.817Z,8.70
2023-01-12T10:33:13.715Z,8.80
2023-01-12T10:35:52.154Z,8.70
2023-01-12T10:38:26.668Z,8.80
2023-01-12T10:41:05.919Z,8.80
2023-01-12T10:43:33.988Z,8.70
2023-01-12T10:46:11.372Z,8.80
2023-01-12T10:48:39.325Z,8.80
2023-01-12T10:51:07.723Z,8.80
2023-01-12T10:53:40.837Z,8.70
2023-01-12T10:56:19.031Z,8.70
2023-01-12T10:58:51.300Z,8.60
2023-01-12T11:01:17.906Z,8.60
2023-01-12T11:03:44.521Z,8.50
2023-01-12T11:06:23.503Z,8.50
2023-01-12T11:08:50.378Z,8.50
2023-01-12T11:11:24.862Z,8.50
2023-01-12T11:13:52.186Z,8.50
2023-01-12T11:16:22.779Z,8.40
2023-01-12T11:19:13.354Z,8.40
2023-01-12T11:21:42.277Z,8.40
2023-01-12T11:24:20.032Z,8.50
2023-01-12T11:26:54.693Z,8.50
2023-01-12T11:29:40.077Z,8.50
2023-01-12T11:32:10.576Z,8.50
2023-01-12T11:34:39.806Z,8.50
2023-01-12T11:37:13.573Z,8.40
2023-01-12T11:39:42.229Z,8.40
2023-01-12T11:42:30.718Z,8.40
2023-01-12T11:45:01.755Z,8.50
2023-01-12T11:47:32.289Z,8.40
2023-01-12T11:49:58.795Z,8.40
2023-01-12T11:52:26.227Z,8.40
2023-01-12T11:54:52.937Z,8.50
2023-01-12T11:57:38.288Z,8.50
2023-01-12T12:00:17.352Z,8.50
2023-01-12T12:03:06.601Z,8.50
2023-01-12T12:05:41.216Z,8.40
2023-01-12T12:08:07.823Z,8.40
2023-01-12T12:10:42.464Z,8.40
2023-01-12T12:13:26.688Z,8.40
2023-01-12T12:15:53.652Z,8.40
2023-01-12T12:18:26.092Z,8.40
2023-01-12T12:21:12.256Z,8.40
2023-01-12T12:23:59.525Z,8.40
2023-01-12T12:26:32.433Z,8.50
2023-01-12T12:29:08.745Z,8.40
2023-01-12T12:31:38.262Z,8.40
2023-01-12T12:34:26.973Z,8.40
2023-01-12T12:37:11.362Z,8.40
2023-01-12T12:39:47.945Z,8.40
2023-01-12T12:42:33.236Z,8.40
2023-01-12T12:45:18.156Z,8.50
2023-01-12T12:48:00.454Z,8.40
2023-01-12T12:50:31.180Z,8.50
2023-01-12T12:53:02.408Z,8.40
2023-01-12T12:55:29.132Z,8.50
2023-01-12T12:58:06.497Z,8.40
2023-01-12T13:00:40.361Z,8.40
2023-01-12T13:03:07.152Z,8.50
2023-01-12T13:05:44.627Z,8.40
2023-01-12T13:08:25.555Z,8.40
2023-01-12T13:10:53.749Z,8.40
2023-01-12T13:13:38.682Z,8.40
2023-01-12T13:16:20.458Z,8.40
2023-01-12T13:18:50.111Z,8.40
2023-01-12T13:21:35.461Z,8.50
2023-01-12T13:24:11.786Z,8.50
2023-01-12T13:26:40.006Z,8.50
2023-01-12T13:29:25.322Z,8.50
2023-01-12T13:31:53.907Z,8.50
2023-01-12T13:34:41.800Z,8.40
2023-01-12T13:37:08.308Z,8.40
2023-01-12T13:39:36.589Z,8.50
2023-01-12T13:42:25.111Z,8.40
2023-01-12T13:44:52.111Z,8.40
2023-01-12T13:47:25.307Z,8.40
2023-01-12T13:49:56.463Z,8.40
2023-01-12T13:52:22.968Z,8.40
2023-01-12T13:54:50.338Z,8.30
2023-01-12T13:57:29.685Z,8.30
2023-01-12T13:59:57.934Z,8.30
2023-01-12T14:02:25.315Z,8.30
2023-01-12T14:04:59.231Z,8.30
2023-01-12T14:07:33.578Z,8.30
2023-01-12T14:10:00.083Z,8.30
2023-01-12T14:12:32.922Z,8.20
2023-01-12T14:15:24.511Z,8.30
2023-01-12T14:17:57.438Z,8.20
2023-01-12T14:20:25.455Z,8.20
2023-01-12T14:23:06.097Z,8.10
2023-01-12T14:25:32.678Z,8.10
2023-01-12T14:27:59.174Z,8.10
2023-01-12T14:30:27.091Z,8.10
2023-01-12T14:32:53.931Z,8.10
2023-01-12T14:35:21.629Z,8.10
2023-01-12T14:37:52.690Z,8.20
2023-01-12T14:40:23.964Z,8.10
2023-01-12T14:43:09.577Z,8.10
2023-01-12T14:45:54.845Z,8.20
2023-01-12T14:48:25.736Z,8.10
2023-01-12T14:51:18.638Z,8.20
2023-01-12T14:53:46.358Z,8.20
2023-01-12T14:56:17.884Z,8.20
2023-01-12T14:58:46.023Z,8.20
2023-01-12T15:01:13.068Z,8.20
2023-01-12T15:03:44.323Z,8.20
2023-01-12T15:06:14.237Z,8.10
2023-01-12T15:08:51.516Z,8.20
2023-01-12T15:11:28.516Z,8.20
2023-01-12T15:13:56.936Z,8.20
2023-01-12T15:16:41.935Z,8.20
2023-01-12T15:19:30.609Z,8.10
2023-01-12T15:22:16.812Z,8.20
2023-01-12T15:25:02.477Z,8.20
2023-01-12T15:27:29.540Z,8.10
2023-01-12T15:29:56.330Z,8.10
2023-01-12T15:32:38.028Z,8.10
2023-01-12T15:35:15.306Z,8.10
2023-01-12T15:37:41.889Z,8.00
2023-01-12T15:40:09.131Z,8.00
2023-01-12T15:42:35.629Z,8.00
2023-01-12T15:45:02.227Z,8.10
2023-01-12T15:47:29.235Z,8.10
2023-01-12T15:49:55.926Z,8.10
2023-01-12T15:52:23.847Z,8.10
2023-01-12T15:54:51.164Z,8.00
2023-01-12T15:57:18.294Z,8.00
2023-01-12T15:59:44.948Z,8.00
2023-01-12T16:02:34.980Z,8.00
2023-01-12T16:05:03.416Z,8.10
2023-01-12T16:07:30.124Z,8.00
2023-01-12T16:09:56.782Z,8.00
2023-01-12T16:12:24.342Z,8.00
2023-01-12T16:14:51.153Z,7.90
2023-01-12T16:17:17.805Z,8.00
2023-01-12T16:19:44.447Z,8.10
2023-01-12T16:22:20.810Z,8.10
2023-01-12T16:24:48.051Z,8.20
2023-01-12T16:27:14.955Z,8.20
2023-01-12T16:29:41.525Z,8.20
2023-01-12T16:32:08.119Z,8.30
2023-01-12T16:34:34.796Z,8.20
2023-01-12T16:37:01.766Z,8.20
2023-01-12T16:39:28.929Z,8.30
2023-01-12T16:42:03.246Z,8.30
2023-01-12T16:44:30.941Z,8.20
2023-01-12T16:46:57.567Z,8.20
2023-01-12T16:49:24.559Z,8.30
2023-01-12T16:51:51.066Z,8.30
2023-01-12T16:54:18.829Z,8.30
2023-01-12T16:56:45.331Z,8.40
2023-01-12T16:59:11.907Z,8.40
2023-01-12T17:01:38.721Z,8.40
2023-01-12T17:04:05.388Z,8.30
2023-01-12T17:06:31.972Z,8.40
2023-01-12T17:09:00.765Z,8.50
2023-01-12T17:11:27.751Z,8.50
2023-01-12T17:13:55.573Z,8.40
2023-01-12T17:16:23.324Z,8.50
2023-01-12T17:18:50.825Z,8.50
2023-01-12T17:21:18.496Z,8.50
2023-01-12T17:23:45.530Z,8.50
2023-01-12T17:26:13.656Z,8.40
2023-01-12T17:28:40.528Z,8.50
2023-01-12T17:31:10.825Z,8.50
2023-01-12T17:33:38.152Z,8.50
2023-01-12T17:36:05.505Z,8.40
2023-01-12T17:38:32.505Z,8.50
2023-01-12T17:40:59.050Z,8.50
2023-01-12T17:43:26.283Z,8.50
2023-01-12T17:45:52.963Z,8.50
2023-01-12T17:48:19.656Z,8.50
2023-01-12T17:50:47.100Z,8.60
2023-01-12T17:53:14.555Z,8.50
2023-01-12T17:55:48.181Z,8.50
2023-01-12T17:58:18.376Z,8.50
2023-01-12T18:00:44.976Z,8.50
2023-01-12T18:03:11.603Z,8.50
2023-01-12T18:05:38.587Z,8.50
2023-01-12T18:08:05.197Z,8.50
2023-01-12T18:10:31.788Z,8.50
2023-01-12T18:12:58.357Z,8.50
2023-01-12T18:15:25.153Z,8.50
2023-01-12T18:17:51.676Z,8.40
2023-01-12T18:20:18.256Z,8.50
2023-01-12T18:22:44.762Z,8.50
2023-01-12T18:25:11.303Z,8.50
2023-01-12T18:27:37.812Z,8.40
2023-01-12T18:30:04.840Z,8.50
2023-01-12T18:32:31.380Z,8.40
2023-01-12T18:34:58.427Z,8.40
2023-01-12T18:37:24.959Z,8.50
2023-01-12T18:39:51.574Z,8.50
2023-01-12T18:42:56.827Z,8.40
2023-01-12T18:45:24.631Z,8.50
2023-01-12T18:48:10.215Z,8.50
2023-01-12T18:50:55.237Z,8.50
2023-01-12T18:53:24.421Z,8.50
2023-01-12T18:55:56.846Z,8.50
2023-01-12T18:58:27.751Z,8.50
2023-01-12T19:00:56.832Z,8.50
2023-01-12T19:03:23.424Z,8.50
2023-01-12T19:06:00.689Z,8.50
2023-01-12T19:08:28.239Z,8.50
2023-01-12T19:10:54.925Z,8.50
2023-01-12T19:13:40.222Z,8.50
2023-01-12T19:16:25.325Z,8.60
2023-01-12T19:18:51.972Z,8.60
2023-01-12T19:21:37.340Z,8.50
2023-01-12T19:24:22.385Z,8.50
2023-01-12T19:27:07.586Z,8.50
2023-01-12T19:29:35.464Z,8.50
2023-01-12T19:32:02.608Z,8.60
2023-01-12T19:34:29.143Z,8.50
2023-01-12T19:36:55.697Z,8.50
2023-01-12T19:39:34.504Z,8.60
2023-01-12T19:42:19.720Z,8.50
2023-01-12T19:44:46.451Z,8.50
2023-01-12T19:47:13.027Z,8.50
2023-01-12T19:49:39.565Z,8.60
2023-01-12T19:52:06.207Z,8.60
2023-01-12T19:54:32.754Z,8.60
2023-01-12T19:56:59.275Z,8.50
2023-01-12T19:59:26.838Z,8.50
2023-01-12T20:01:53.904Z,8.50
2023-01-12T20:04:20.539Z,8.50
2023-01-12T20:06:47.191Z,8.50
2023-01-12T20:09:13.685Z,8.50
2023-01-12T20:11:40.189Z,8.60
2023-01-12T20:14:06.825Z,8.60
2023-01-12T20:16:33.639Z,8.60
2023-01-12T20:19:00.375Z,8.60
2023-01-12T20:21:26.907Z,8.60
2023-01-12T20:23:53.430Z,8.50
2023-01-12T20:26:20.004Z,8.60
2023-01-12T20:28:46.538Z,8.70
2023-01-12T20:31:13.763Z,8.70
2023-01-12T20:33:40.564Z,8.70
2023-01-12T20:36:14.115Z,8.60
2023-01-12T20:38:41.113Z,8.60
2023-01-12T20:41:08.442Z,8.60
2023-01-12T20:43:34.945Z,8.60
2023-01-12T20:46:01.798Z,8.70
2023-01-12T20:48:28.724Z,8.70
2023-01-12T20:50:55.534Z,8.60
2023-01-12T20:53:23.759Z,8.70
2023-01-12T20:55:50.840Z,8.70
2023-01-12T20:58:17.999Z,8.70
2023-01-12T21:00:44.701Z,8.70
2023-01-12T21:03:11.381Z,8.70
2023-01-12T21:05:41.615Z,8.70
2023-01-12T21:08:08.741Z,8.70
2023-01-12T21:10:36.403Z,8.70
2023-01-12T21:13:02.957Z,8.70
2023-01-12T21:15:29.623Z,8.70
2023-01-12T21:17:56.145Z,8.70
2023-01-12T21:20:22.680Z,8.70
2023-01-12T21:22:49.307Z,8.70
2023-01-12T21:25:15.942Z,8.70
2023-01-12T21:27:42.628Z,8.70
2023-01-12T21:30:09.399Z,8.70
2023-01-12T21:32:36.153Z,8.60
2023-01-12T21:35:03.050Z,8.60
2023-01-12T21:37:29.676Z,8.60
2023-01-12T21:39:56.276Z,8.60
2023-01-12T21:42:41.447Z,8.70
2023-01-12T21:45:08.364Z,8.60
2023-01-12T21:47:34.861Z,8.60
2023-01-12T21:50:01.351Z,8.60
2023-01-12T21:52:32.908Z,8.50
2023-01-12T21:54:59.580Z,8.50
2023-01-12T21:57:26.084Z,8.50
2023-01-12T21:59:52.693Z,8.60
2023-01-12T22:02:19.275Z,8.60
2023-01-12T22:04:46.010Z,8.60
2023-01-12T22:07:13.152Z,8.70
2023-01-12T22:09:39.702Z,8.70
2023-01-12T22:12:07.167Z,8.70
2023-01-12T22:14:33.744Z,8.70
2023-01-12T22:17:00.528Z,8.70
2023-01-12T22:19:27.135Z,8.70
2023-01-12T22:21:53.760Z,8.70
2023-01-12T22:24:20.454Z,8.60
2023-01-12T22:26:46.958Z,8.70
2023-01-12T22:29:16.571Z,8.70
2023-01-12T22:31:43.183Z,8.70
2023-01-12T22:34:12.265Z,8.70
2023-01-12T22:36:44.950Z,8.70
2023-01-12T22:39:12.081Z,8.70
2023-01-12T22:41:39.282Z,8.70
2023-01-12T22:44:06.279Z,8.70
2023-01-12T22:46:33.140Z,8.70
2023-01-12T22:48:59.692Z,8.80
2023-01-12T22:51:26.835Z,8.80
2023-01-12T22:53:54.031Z,8.80
2023-01-12T22:56:20.589Z,8.80
2023-01-12T22:58:47.816Z,8.80
2023-01-12T23:01:14.648Z,8.80
2023-01-12T23:03:41.326Z,8.80
2023-01-12T23:06:10.881Z,8.80
2023-01-12T23:08:37.512Z,8.80
2023-01-12T23:11:23.539Z,8.80
2023-01-12T23:13:50.496Z,8.80
2023-01-12T23:16:17.819Z,8.80
2023-01-12T23:18:45.436Z,8.80
2023-01-12T23:21:14.088Z,8.80
2023-01-12T23:23:44.630Z,8.80
2023-01-12T23:26:12.389Z,8.80
2023-01-12T23:28:41.563Z,8.80
2023-01-12T23:31:10.667Z,8.80
2023-01-12T23:33:37.970Z,8.80
2023-01-12T23:36:08.731Z,8.80
2023-01-12T23:38:35.488Z,8.80
2023-01-12T23:41:12.119Z,8.80
2023-01-12T23:43:38.741Z,8.80
2023-01-12T23:46:05.760Z,8.80
2023-01-12T23:48:32.577Z,8.80
2023-01-12T23:51:00.069Z,8.80
2023-01-12T23:53:27.234Z,8.80
2023-01-12T23:55:54.544Z,8.80
2023-01-12T23:58:21.636Z,8.80
